createdAt,value
2018-05-16T00:02:22.716Z,15.42
2018-05-16T00:04:50.297Z,15.46
2018-05-16T00:07:17.919Z,15.55
2018-05-16T00:09:45.502Z,15.55
2018-05-16T00:12:13.124Z,15.54
2018-05-16T00:14:40.746Z,15.61
2018-05-16T00:17:08.369Z,15.54
2018-05-16T00:19:35.951Z,15.59
2018-05-16T00:22:03.533Z,15.54
2018-05-16T00:24:31.154Z,15.56
2018-05-16T00:26:58.781Z,15.43
2018-05-16T00:29:26.397Z,15.44
2018-05-16T00:31:53.985Z,15.46
2018-05-16T00:34:21.599Z,15.40
2018-05-16T00:36:49.179Z,15.33
2018-05-16T00:39:16.808Z,15.31
2018-05-16T00:41:44.399Z,15.36
2018-05-16T00:44:12.611Z,15.30
2018-05-16T00:46:40.195Z,15.39
2018-05-16T00:49:07.801Z,15.42
2018-05-16T00:51:35.987Z,15.36
2018-05-16T00:54:03.628Z,15.25
2018-05-16T00:56:31.216Z,15.23
2018-05-16T00:58:58.840Z,15.27
2018-05-16T01:01:26.425Z,15.30
2018-05-16T01:03:54.781Z,15.25
2018-05-16T01:06:22.357Z,15.23
2018-05-16T01:08:49.951Z,15.23
2018-05-16T01:11:17.593Z,15.22
2018-05-16T01:13:45.192Z,15.16
2018-05-16T01:16:12.768Z,15.00
2018-05-16T01:18:40.391Z,15.08
2018-05-16T01:21:07.985Z,15.03
2018-05-16T01:23:35.597Z,15.00
2018-05-16T01:26:03.213Z,14.92
2018-05-16T01:28:30.828Z,14.98
2018-05-16T01:30:58.627Z,14.92
2018-05-16T01:33:26.238Z,14.89
2018-05-16T01:35:53.818Z,14.95
2018-05-16T01:38:21.437Z,14.99
2018-05-16T01:40:49.017Z,14.99
2018-05-16T01:43:16.645Z,15.01
2018-05-16T01:45:44.821Z,15.05
2018-05-16T01:48:13.120Z,14.97
2018-05-16T01:50:40.762Z,15.01
2018-05-16T01:53:08.417Z,14.93
2018-05-16T01:55:36.041Z,14.95
2018-05-16T01:58:03.617Z,15.01
2018-05-16T02:00:31.254Z,14.68
2018-05-16T02:02:58.870Z,14.66
2018-05-16T02:05:26.622Z,14.65
2018-05-16T02:07:54.199Z,14.69
2018-05-16T02:10:21.833Z,14.82
2018-05-16T02:12:49.581Z,14.72
2018-05-16T02:15:17.157Z,14.58
2018-05-16T02:17:44.769Z,14.58
2018-05-16T02:20:12.355Z,14.64
2018-05-16T02:22:40.276Z,14.79
2018-05-16T02:25:07.866Z,14.57
2018-05-16T02:27:35.448Z,14.67
2018-05-16T02:30:03.064Z,14.69
2018-05-16T02:32:30.688Z,14.71
2018-05-16T02:34:58.357Z,14.88
2018-05-16T02:37:26.000Z,14.97
2018-05-16T02:39:53.821Z,14.85
2018-05-16T02:42:21.883Z,14.96
2018-05-16T02:44:49.469Z,14.98
2018-05-16T02:47:17.092Z,14.93
2018-05-16T02:49:44.715Z,14.79
2018-05-16T02:52:12.297Z,14.62
2018-05-16T02:54:39.925Z,14.52
2018-05-16T02:57:07.505Z,14.46
2018-05-16T02:59:35.133Z,14.43
2018-05-16T03:02:02.868Z,14.38
2018-05-16T03:04:30.467Z,14.46
2018-05-16T03:06:58.093Z,14.51
2018-05-16T03:09:25.723Z,14.40
2018-05-16T03:11:53.353Z,14.43
2018-05-16T03:14:20.948Z,14.42
2018-05-16T03:16:48.576Z,14.40
2018-05-16T03:19:16.188Z,14.44
2018-05-16T03:21:43.817Z,14.47
2018-05-16T03:24:11.398Z,14.43
2018-05-16T03:26:39.037Z,14.45
2018-05-16T03:29:06.664Z,14.46
2018-05-16T03:31:34.261Z,14.49
2018-05-16T03:34:01.907Z,14.49
2018-05-16T03:36:29.535Z,14.48
2018-05-16T03:38:57.117Z,14.47
2018-05-16T03:41:24.705Z,14.65
2018-05-16T03:43:52.323Z,14.56
2018-05-16T03:46:19.913Z,14.55
2018-05-16T03:48:47.540Z,14.59
2018-05-16T03:51:15.113Z,14.61
2018-05-16T03:53:42.742Z,14.65
2018-05-16T03:56:10.507Z,14.62
2018-05-16T03:58:50.293Z,14.53
2018-05-16T04:01:29.994Z,14.58
2018-05-16T04:04:09.281Z,14.48
2018-05-16T04:06:36.884Z,14.57
2018-05-16T04:09:04.544Z,14.63
2018-05-16T04:11:32.138Z,14.55
2018-05-16T04:13:59.724Z,14.62
2018-05-16T04:16:27.341Z,14.90
2018-05-16T04:18:54.972Z,14.63
2018-05-16T04:21:22.601Z,14.77
2018-05-16T04:23:50.231Z,14.68
2018-05-16T04:26:18.083Z,14.84
2018-05-16T04:28:45.730Z,14.61
2018-05-16T04:31:13.338Z,14.55
2018-05-16T04:33:41.916Z,14.61
2018-05-16T04:36:09.603Z,14.71
2018-05-16T04:38:37.180Z,14.72
2018-05-16T04:41:04.798Z,14.81
2018-05-16T04:43:32.429Z,14.85
2018-05-16T04:46:00.633Z,14.78
2018-05-16T04:48:28.259Z,14.72
2018-05-16T04:50:55.839Z,14.76
2018-05-16T04:53:23.480Z,14.76
2018-05-16T04:55:51.106Z,14.80
2018-05-16T04:58:18.725Z,14.83
2018-05-16T05:00:46.353Z,14.90
2018-05-16T05:03:13.949Z,14.90
2018-05-16T05:05:42.229Z,14.92
2018-05-16T05:08:10.576Z,14.93
2018-05-16T05:10:38.206Z,15.12
2018-05-16T05:13:05.794Z,15.05
2018-05-16T05:15:33.629Z,15.28
2018-05-16T05:18:01.252Z,15.30
2018-05-16T05:20:28.829Z,15.49
2018-05-16T05:22:56.471Z,15.82
2018-05-16T05:25:24.064Z,16.15
2018-05-16T05:27:51.844Z,16.71
2018-05-16T05:30:19.543Z,16.94
2018-05-16T05:32:47.117Z,17.39
2018-05-16T05:35:14.737Z,17.65
2018-05-16T05:37:42.384Z,18.19
2018-05-16T05:40:09.979Z,18.68
2018-05-16T05:42:37.616Z,19.27
2018-05-16T05:45:05.238Z,18.71
2018-05-16T05:47:33.008Z,18.54
2018-05-16T05:50:01.413Z,18.83
2018-05-16T05:52:29.168Z,19.68
2018-05-16T05:54:56.792Z,20.29
2018-05-16T05:57:24.712Z,20.56
2018-05-16T05:59:52.338Z,20.09
2018-05-16T06:02:19.922Z,20.42
2018-05-16T06:04:47.546Z,19.88
2018-05-16T06:07:15.132Z,19.69
2018-05-16T06:09:42.812Z,20.17
2018-05-16T06:12:10.389Z,20.22
2018-05-16T06:14:38.589Z,20.27
2018-05-16T06:17:06.208Z,20.36
2018-05-16T06:19:33.905Z,20.88
2018-05-16T06:22:01.470Z,20.63
2018-05-16T06:24:29.160Z,20.37
2018-05-16T06:26:57.119Z,20.19
2018-05-16T06:29:24.637Z,20.36
2018-05-16T06:31:52.309Z,19.85
2018-05-16T06:34:19.895Z,19.57
2018-05-16T06:36:47.518Z,19.53
2018-05-16T06:39:15.502Z,19.57
2018-05-16T06:41:43.104Z,19.66
2018-05-16T06:44:10.677Z,19.64
2018-05-16T06:46:38.285Z,19.75
2018-05-16T06:49:05.906Z,20.20
2018-05-16T06:51:33.500Z,20.42
2018-05-16T06:54:01.127Z,20.61
2018-05-16T06:56:28.891Z,21.91
2018-05-16T06:58:56.617Z,21.84
2018-05-16T07:01:24.201Z,22.23
2018-05-16T07:03:52.144Z,22.98
2018-05-16T07:06:19.772Z,23.75
2018-05-16T07:08:47.711Z,24.35
2018-05-16T07:11:15.301Z,25.17
2018-05-16T07:13:42.931Z,25.23
2018-05-16T07:16:11.086Z,24.83
2018-05-16T07:18:38.989Z,23.84
2018-05-16T07:21:06.569Z,23.63
2018-05-16T07:23:34.977Z,25.60
2018-05-16T07:26:03.400Z,25.15
2018-05-16T07:28:31.024Z,25.44
2018-05-16T07:30:58.636Z,26.42
2018-05-16T07:33:26.822Z,26.80
2018-05-16T07:35:54.406Z,27.15
2018-05-16T07:38:22.022Z,26.37
2018-05-16T07:40:49.603Z,26.35
2018-05-16T07:43:17.245Z,25.08
2018-05-16T07:45:44.822Z,24.63
2018-05-16T07:48:12.397Z,25.81
2018-05-16T07:50:40.018Z,25.36
2018-05-16T07:53:07.609Z,26.17
2018-05-16T07:55:35.216Z,25.07
2018-05-16T07:58:02.806Z,25.37
2018-05-16T08:00:31.042Z,24.41
2018-05-16T08:02:58.653Z,24.79
2018-05-16T08:05:26.229Z,25.96
2018-05-16T08:07:53.832Z,26.09
2018-05-16T08:10:21.460Z,26.10
2018-05-16T08:12:49.045Z,25.51
2018-05-16T08:15:16.668Z,26.55
2018-05-16T08:17:44.552Z,27.38
2018-05-16T08:20:12.161Z,27.78
2018-05-16T08:22:39.748Z,27.47
2018-05-16T08:25:07.359Z,27.65
2018-05-16T08:27:34.978Z,27.00
2018-05-16T08:30:02.562Z,27.29
2018-05-16T08:32:30.172Z,27.80
2018-05-16T08:34:57.793Z,27.90
2018-05-16T08:37:25.414Z,27.42
2018-05-16T08:39:52.998Z,26.74
2018-05-16T08:42:20.632Z,26.68
2018-05-16T08:44:48.238Z,26.55
2018-05-16T08:47:16.299Z,26.97
2018-05-16T08:49:43.920Z,26.75
2018-05-16T08:52:11.514Z,27.39
2018-05-16T08:54:39.865Z,26.04
2018-05-16T08:57:07.771Z,26.64
2018-05-16T08:59:35.362Z,27.51
2018-05-16T09:02:02.949Z,27.23
2018-05-16T09:04:30.738Z,27.40
2018-05-16T09:06:58.320Z,26.70
2018-05-16T09:09:25.897Z,25.30
2018-05-16T09:11:54.198Z,25.30
2018-05-16T09:14:21.836Z,26.24
2018-05-16T09:16:49.413Z,26.35
2018-05-16T09:19:17.030Z,25.75
2018-05-16T09:21:58.232Z,25.54
2018-05-16T09:24:26.753Z,25.37
2018-05-16T09:26:54.366Z,24.35
2018-05-16T09:29:21.957Z,24.40
2018-05-16T09:31:49.594Z,24.78
2018-05-16T09:34:17.166Z,25.50
2018-05-16T09:36:44.754Z,25.53
2018-05-16T09:39:12.374Z,25.47
2018-05-16T09:41:40.021Z,25.50
2018-05-16T09:44:08.249Z,25.38
2018-05-16T09:46:36.729Z,25.67
2018-05-16T09:49:04.342Z,25.81
2018-05-16T09:51:32.008Z,26.16
2018-05-16T09:53:59.569Z,25.91
2018-05-16T09:56:27.146Z,25.74
2018-05-16T09:58:54.759Z,25.52
2018-05-16T10:01:22.401Z,25.39
2018-05-16T10:03:49.995Z,25.02
2018-05-16T10:06:17.627Z,25.00
2018-05-16T10:08:45.241Z,24.55
2018-05-16T10:11:12.853Z,25.21
2018-05-16T10:13:40.483Z,25.47
2018-05-16T10:16:08.099Z,25.49
2018-05-16T10:18:35.695Z,25.53
2018-05-16T10:21:03.308Z,25.57
2018-05-16T10:23:30.942Z,25.67
2018-05-16T10:25:58.573Z,25.69
2018-05-16T10:28:26.245Z,25.84
2018-05-16T10:30:54.546Z,25.85
2018-05-16T10:33:22.171Z,25.78
2018-05-16T10:35:50.344Z,25.75
2018-05-16T10:38:19.160Z,25.90
2018-05-16T10:40:46.745Z,25.91
2018-05-16T10:43:14.321Z,25.95
2018-05-16T10:45:41.953Z,26.05
2018-05-16T10:48:10.127Z,26.28
2018-05-16T10:50:37.701Z,26.26
2018-05-16T10:53:05.310Z,26.47
2018-05-16T10:55:32.944Z,26.46
2018-05-16T10:58:01.543Z,26.08
2018-05-16T11:00:29.159Z,25.67
2018-05-16T11:02:56.801Z,25.16
2018-05-16T11:05:24.560Z,25.49
2018-05-16T11:07:52.144Z,25.92
2018-05-16T11:10:19.760Z,25.92
2018-05-16T11:12:47.608Z,26.18
2018-05-16T11:15:15.233Z,26.19
2018-05-16T11:17:42.799Z,26.29
2018-05-16T11:20:11.115Z,26.23
2018-05-16T11:22:38.863Z,26.23
2018-05-16T11:25:06.684Z,25.84
2018-05-16T11:27:34.269Z,25.69
2018-05-16T11:30:01.877Z,25.92
2018-05-16T11:32:29.574Z,26.20
2018-05-16T11:34:57.176Z,26.23
2018-05-16T11:37:24.799Z,26.30
2018-05-16T11:39:52.380Z,26.48
2018-05-16T11:42:19.996Z,26.23
2018-05-16T11:44:47.608Z,26.19
2018-05-16T11:47:15.226Z,26.16
2018-05-16T11:49:43.395Z,26.39
2018-05-16T11:52:11.009Z,26.44
2018-05-16T11:54:38.580Z,26.28
2018-05-16T11:57:06.202Z,26.26
2018-05-16T11:59:33.820Z,26.28
2018-05-16T12:02:01.397Z,26.44
2018-05-16T12:04:29.115Z,26.39
2018-05-16T12:06:56.737Z,26.35
2018-05-16T12:09:24.317Z,26.06
2018-05-16T12:11:57.894Z,26.23
2018-05-16T12:14:25.757Z,26.06
2018-05-16T12:16:53.377Z,26.11
2018-05-16T12:19:20.961Z,26.31
2018-05-16T12:21:48.538Z,26.36
2018-05-16T12:24:16.372Z,26.42
2018-05-16T12:26:43.984Z,26.34
2018-05-16T12:29:11.661Z,26.31
2018-05-16T12:31:39.213Z,26.27
2018-05-16T12:34:06.788Z,26.50
2018-05-16T12:36:34.465Z,26.32
2018-05-16T12:39:02.048Z,25.88
2018-05-16T12:41:29.660Z,26.14
2018-05-16T12:43:57.233Z,26.10
2018-05-16T12:46:25.612Z,26.03
2018-05-16T12:48:53.197Z,26.10
2018-05-16T12:51:21.390Z,25.79
2018-05-16T12:53:49.629Z,25.99
2018-05-16T12:56:17.200Z,26.04
2018-05-16T12:58:44.809Z,26.38
2018-05-16T13:01:12.381Z,26.38
2018-05-16T13:03:40.884Z,26.37
2018-05-16T13:06:08.656Z,26.35
2018-05-16T13:08:36.268Z,26.36
2018-05-16T13:11:03.848Z,26.36
2018-05-16T13:13:31.461Z,26.45
2018-05-16T13:15:59.024Z,26.17
2018-05-16T13:18:26.651Z,26.48
2018-05-16T13:20:54.230Z,26.45
2018-05-16T13:23:22.432Z,26.67
2018-05-16T13:25:50.025Z,26.80
2018-05-16T13:28:17.639Z,26.80
2018-05-16T13:30:45.213Z,26.80
2018-05-16T13:33:12.785Z,26.69
2018-05-16T13:35:40.485Z,26.51
2018-05-16T13:38:08.009Z,26.48
2018-05-16T13:40:35.625Z,26.23
2018-05-16T13:43:03.324Z,26.34
2018-05-16T13:45:30.938Z,26.20
2018-05-16T13:47:58.855Z,26.32
2018-05-16T13:50:26.472Z,26.44
2018-05-16T13:52:54.276Z,26.46
2018-05-16T13:55:21.892Z,26.36
2018-05-16T13:57:49.470Z,26.41
2018-05-16T14:00:17.084Z,26.46
2018-05-16T14:02:44.700Z,26.57
2018-05-16T14:05:12.297Z,26.52
2018-05-16T14:07:39.933Z,26.16
2018-05-16T14:10:07.514Z,26.31
2018-05-16T14:12:35.090Z,26.22
2018-05-16T14:15:03.013Z,26.32
2018-05-16T14:17:30.658Z,26.36
2018-05-16T14:19:58.549Z,26.55
2018-05-16T14:22:26.165Z,26.63
2018-05-16T14:24:53.741Z,26.45
2018-05-16T14:27:21.362Z,26.43
2018-05-16T14:29:49.280Z,26.52
2018-05-16T14:32:16.870Z,26.32
2018-05-16T14:34:44.493Z,26.22
2018-05-16T14:37:12.070Z,26.21
2018-05-16T14:39:39.676Z,26.29
2018-05-16T14:42:07.261Z,26.24
2018-05-16T14:44:34.887Z,26.08
2018-05-16T14:47:02.466Z,26.10
2018-05-16T14:49:30.044Z,26.18
2018-05-16T14:51:57.917Z,26.22
2018-05-16T14:54:25.538Z,26.03
2018-05-16T14:56:53.152Z,25.87
2018-05-16T14:59:20.740Z,25.82
2018-05-16T15:01:48.456Z,25.81
2018-05-16T15:04:16.007Z,25.80
2018-05-16T15:06:43.592Z,25.74
2018-05-16T15:09:11.985Z,25.69
2018-05-16T15:11:39.854Z,25.64
2018-05-16T15:16:38.518Z,25.28
2018-05-16T15:19:06.127Z,25.16
2018-05-16T15:21:33.741Z,25.16
2018-05-16T15:24:01.314Z,25.08
2018-05-16T15:26:28.940Z,25.06
2018-05-16T15:28:56.517Z,24.94
2018-05-16T15:31:24.099Z,24.79
2018-05-16T15:33:51.721Z,24.71
2018-05-16T15:36:19.539Z,24.68
2018-05-16T15:38:47.278Z,24.58
2018-05-16T15:41:15.412Z,24.41
2018-05-16T15:43:43.133Z,24.42
2018-05-16T15:46:10.730Z,24.35
2018-05-16T15:48:38.352Z,24.25
2018-05-16T15:51:06.628Z,24.22
2018-05-16T15:53:34.226Z,24.16
2018-05-16T15:56:01.838Z,24.23
2018-05-16T15:58:29.417Z,24.08
2018-05-16T16:00:57.040Z,23.92
2018-05-16T16:03:24.892Z,23.81
2018-05-16T16:05:52.559Z,23.79
2018-05-16T16:08:20.986Z,23.69
2018-05-16T16:10:48.565Z,23.79
2018-05-16T16:13:16.189Z,23.77
2018-05-16T16:15:43.867Z,23.67
2018-05-16T16:18:11.483Z,23.61
2018-05-16T16:20:39.057Z,23.53
2018-05-16T16:23:06.687Z,23.56
2018-05-16T16:25:34.261Z,23.63
2018-05-16T16:28:01.878Z,23.66
2018-05-16T16:30:29.665Z,23.66
2018-05-16T16:32:57.285Z,23.51
2018-05-16T16:35:24.910Z,23.47
2018-05-16T16:37:52.657Z,23.39
2018-05-16T16:40:20.844Z,23.28
2018-05-16T16:42:49.041Z,23.19
2018-05-16T16:45:16.739Z,23.17
2018-05-16T16:47:44.316Z,23.16
2018-05-16T16:50:13.110Z,23.02
2018-05-16T16:52:40.758Z,22.97
2018-05-16T16:55:08.373Z,23.04
2018-05-16T16:57:35.982Z,23.09
2018-05-16T17:00:03.613Z,23.02
2018-05-16T17:02:31.233Z,22.97
2018-05-16T17:04:58.820Z,22.93
2018-05-16T17:07:26.444Z,22.76
2018-05-16T17:09:54.759Z,22.78
2018-05-16T17:12:22.376Z,22.65
2018-05-16T17:14:50.023Z,22.64
2018-05-16T17:17:17.665Z,22.45
2018-05-16T17:19:45.241Z,22.48
2018-05-16T17:22:13.583Z,22.42
2018-05-16T17:24:41.158Z,22.29
2018-05-16T17:27:08.793Z,22.36
2018-05-16T17:29:36.431Z,22.39
2018-05-16T17:32:04.085Z,22.46
2018-05-16T17:34:32.859Z,22.40
2018-05-16T17:37:00.860Z,22.36
2018-05-16T17:39:28.491Z,22.27
2018-05-16T17:41:56.068Z,22.18
2018-05-16T17:44:23.781Z,22.10
2018-05-16T17:46:51.361Z,22.06
2018-05-16T17:49:18.977Z,22.00
2018-05-16T17:51:50.483Z,22.00
2018-05-16T17:54:25.375Z,22.01
2018-05-16T17:56:53.398Z,22.01
2018-05-16T17:59:21.022Z,21.88
2018-05-16T18:01:48.899Z,21.89
2018-05-16T18:04:16.761Z,21.85
2018-05-16T18:06:44.800Z,21.73
2018-05-16T18:09:13.406Z,21.71
2018-05-16T18:11:41.015Z,21.72
2018-05-16T18:14:20.599Z,21.61
2018-05-16T18:19:53.697Z,21.49
2018-05-16T18:22:22.224Z,21.47
2018-05-16T18:24:49.833Z,21.50
2018-05-16T18:27:17.437Z,21.37
2018-05-16T18:29:45.256Z,21.34
2018-05-16T18:32:13.189Z,21.25
2018-05-16T18:34:40.852Z,21.16
2018-05-16T18:37:08.435Z,21.08
2018-05-16T18:39:36.018Z,20.96
2018-05-16T18:42:05.116Z,20.92
2018-05-16T18:44:32.706Z,20.96
2018-05-16T18:47:00.522Z,20.80
2018-05-16T18:49:33.172Z,20.71
2018-05-16T18:52:01.127Z,20.65
2018-05-16T18:54:28.728Z,20.66
2018-05-16T18:56:56.353Z,20.62
2018-05-16T18:59:23.941Z,20.54
2018-05-16T19:01:51.565Z,20.46
2018-05-16T19:04:19.137Z,20.48
2018-05-16T19:06:51.632Z,20.46
2018-05-16T19:09:25.046Z,20.35
2018-05-16T19:11:59.822Z,20.34
2018-05-16T19:14:34.051Z,20.30
2018-05-16T19:17:01.985Z,20.21
2018-05-16T19:19:29.676Z,20.18
2018-05-16T19:21:57.249Z,20.04
2018-05-16T19:24:26.047Z,19.98
2018-05-16T19:26:53.695Z,19.93
2018-05-16T19:29:21.637Z,19.90
2018-05-16T19:31:49.224Z,19.77
2018-05-16T19:34:17.401Z,19.75
2018-05-16T19:36:44.981Z,19.72
2018-05-16T19:39:12.584Z,19.60
2018-05-16T19:41:40.195Z,19.54
2018-05-16T19:44:07.781Z,19.42
2018-05-16T19:46:35.404Z,19.37
2018-05-16T19:49:02.977Z,19.28
2018-05-16T19:51:30.556Z,19.22
2018-05-16T19:53:58.381Z,19.14
2018-05-16T19:56:25.962Z,19.10
2018-05-16T19:58:54.273Z,19.06
2018-05-16T20:01:21.996Z,18.93
2018-05-16T20:03:49.961Z,18.94
2018-05-16T20:06:17.537Z,18.87
2018-05-16T20:08:45.757Z,18.76
2018-05-16T20:11:14.062Z,18.69
2018-05-16T20:13:41.693Z,18.66
2018-05-16T20:16:09.857Z,18.55
2018-05-16T20:18:37.997Z,18.50
2018-05-16T20:21:06.342Z,18.44
2018-05-16T20:23:33.990Z,18.29
2018-05-16T20:26:01.771Z,18.26
2018-05-16T20:28:29.395Z,18.26
2018-05-16T20:30:56.973Z,18.24
2018-05-16T20:33:24.546Z,18.18
2018-05-16T20:35:52.743Z,18.16
2018-05-16T20:38:20.321Z,18.09
2018-05-16T20:40:47.944Z,18.06
2018-05-16T20:43:15.578Z,18.02
2018-05-16T20:45:43.161Z,17.81
2018-05-16T20:48:10.729Z,17.78
2018-05-16T20:50:38.422Z,17.83
2018-05-16T20:53:05.988Z,17.80
2018-05-16T20:55:33.676Z,17.81
2018-05-16T20:58:01.345Z,17.67
2018-05-16T21:00:28.960Z,17.62
2018-05-16T21:02:56.678Z,17.53
2018-05-16T21:05:24.256Z,17.54
2018-05-16T21:07:51.885Z,17.51
2018-05-16T21:10:19.474Z,17.32
2018-05-16T21:12:48.037Z,17.21
2018-05-16T21:15:16.361Z,17.10
2018-05-16T21:17:43.981Z,17.15
2018-05-16T21:20:11.559Z,17.11
2018-05-16T21:22:39.148Z,17.08
2018-05-16T21:25:06.766Z,16.92
2018-05-16T21:27:34.387Z,16.94
2018-05-16T21:30:01.980Z,16.91
2018-05-16T21:32:30.265Z,16.79
2018-05-16T21:34:57.877Z,16.75
2018-05-16T21:37:25.957Z,16.57
2018-05-16T21:39:54.353Z,16.56
2018-05-16T21:42:22.096Z,16.47
2018-05-16T21:44:49.719Z,16.49
2018-05-16T21:47:17.678Z,16.41
2018-05-16T21:49:45.337Z,16.39
2018-05-16T21:52:12.958Z,16.30
2018-05-16T21:54:40.570Z,16.23
2018-05-16T21:57:08.195Z,16.18
2018-05-16T21:59:35.777Z,16.21
2018-05-16T22:02:03.400Z,16.06
2018-05-16T22:04:31.024Z,16.01
2018-05-16T22:06:58.622Z,15.97
2018-05-16T22:09:26.276Z,15.88
2018-05-16T22:11:53.910Z,15.77
2018-05-16T22:14:22.364Z,15.72
2018-05-16T22:16:49.945Z,15.70
2018-05-16T22:19:17.569Z,15.72
2018-05-16T22:21:45.801Z,15.61
2018-05-16T22:24:13.381Z,15.55
2018-05-16T22:26:40.952Z,15.50
2018-05-16T22:29:09.049Z,15.37
2018-05-16T22:31:42.333Z,15.35
2018-05-16T22:34:15.573Z,15.20
2018-05-16T22:36:48.774Z,15.13
2018-05-16T22:39:22.024Z,15.07
2018-05-16T22:41:55.279Z,14.96
2018-05-16T22:47:26.837Z,14.87
2018-05-16T22:49:54.699Z,14.79
2018-05-16T22:52:22.281Z,14.69
2018-05-16T22:54:49.901Z,14.66
2018-05-16T22:57:17.476Z,14.64
2018-05-16T22:59:45.285Z,14.66
2018-05-16T23:02:13.177Z,14.62
2018-05-16T23:04:40.796Z,14.56
2018-05-16T23:07:08.385Z,14.45
2018-05-16T23:09:36.001Z,14.46
2018-05-16T23:12:03.589Z,14.36
2018-05-16T23:14:31.749Z,14.41
2018-05-16T23:16:59.357Z,14.41
2018-05-16T23:19:26.932Z,14.27
2018-05-16T23:21:54.825Z,14.26
2018-05-16T23:24:22.400Z,14.21
2018-05-16T23:26:50.018Z,14.14
2018-05-16T23:29:17.597Z,14.10
2018-05-16T23:31:45.217Z,13.90
2018-05-16T23:34:13.150Z,13.87
2018-05-16T23:36:40.752Z,13.68
2018-05-16T23:39:08.396Z,13.57
2018-05-16T23:41:36.021Z,13.59
2018-05-16T23:44:03.632Z,13.39
2018-05-16T23:46:31.253Z,13.36
2018-05-16T23:48:58.886Z,13.29
2018-05-16T23:51:26.501Z,13.26
2018-05-16T23:53:54.082Z,13.13
2018-05-16T23:56:21.754Z,13.07
2018-05-16T23:58:49.381Z,13.08
